sensor_id;sensor_type;location;lat;lon;timestamp;pressure;altitude;pressure_sealevel;temperature;humidity
72038;BME280;59900;50.788;12.904;2023-06-22T00:02:16;97889.28;;;20.22;83.50
72038;BME280;59900;50.788;12.904;2023-06-22T00:04:42;97882.16;;;20.27;83.03
72038;BME280;59900;50.788;12.904;2023-06-22T00:07:07;97880.75;;;20.25;83.16
72038;BME280;59900;50.788;12.904;2023-06-22T00:09:33;97879.63;;;20.21;83.12
72038;BME280;59900;50.788;12.904;2023-06-22T00:11:58;97881.75;;;20.19;83.24
72038;BME280;59900;50.788;12.904;2023-06-22T00:14:24;97873.94;;;20.12;83.58
72038;BME280;59900;50.788;12.904;2023-06-22T00:16:49;97857.88;;;20.07;83.67
72038;BME280;59900;50.788;12.904;2023-06-22T00:19:19;97853.09;;;20.09;83.74
72038;BME280;59900;50.788;12.904;2023-06-22T00:21:46;97854.88;;;20.03;83.90
72038;BME280;59900;50.788;12.904;2023-06-22T00:24:12;97845.75;;;19.99;83.77
72038;BME280;59900;50.788;12.904;2023-06-22T00:26:37;97850.31;;;19.99;83.90
72038;BME280;59900;50.788;12.904;2023-06-22T00:29:02;97855.66;;;19.99;83.90
72038;BME280;59900;50.788;12.904;2023-06-22T00:31:27;97860.88;;;19.94;83.82
72038;BME280;59900;50.788;12.904;2023-06-22T00:33:53;97859.84;;;19.95;84.09
72038;BME280;59900;50.788;12.904;2023-06-22T00:36:18;97872.44;;;19.99;83.90
72038;BME280;59900;50.788;12.904;2023-06-22T00:38:44;97863.56;;;19.94;83.92
72038;BME280;59900;50.788;12.904;2023-06-22T00:41:09;97856.84;;;19.91;84.23
72038;BME280;59900;50.788;12.904;2023-06-22T00:43:35;97856.00;;;19.86;84.39
72038;BME280;59900;50.788;12.904;2023-06-22T00:46:00;97869.00;;;19.82;84.53
72038;BME280;59900;50.788;12.904;2023-06-22T00:48:25;97865.28;;;19.83;84.88
72038;BME280;59900;50.788;12.904;2023-06-22T00:50:50;97861.59;;;19.84;84.90
72038;BME280;59900;50.788;12.904;2023-06-22T00:53:19;97866.41;;;19.87;84.78
72038;BME280;59900;50.788;12.904;2023-06-22T00:55:44;97857.84;;;19.85;84.42
72038;BME280;59900;50.788;12.904;2023-06-22T00:58:16;97853.00;;;19.82;84.72
72038;BME280;59900;50.788;12.904;2023-06-22T01:00:42;97854.84;;;19.82;84.74
72038;BME280;59900;50.788;12.904;2023-06-22T01:03:07;97845.25;;;19.81;85.04
72038;BME280;59900;50.788;12.904;2023-06-22T01:05:37;97842.84;;;19.79;84.70
72038;BME280;59900;50.788;12.904;2023-06-22T01:10:36;97849.97;;;19.74;84.53
72038;BME280;59900;50.788;12.904;2023-06-22T01:13:10;97867.53;;;19.70;84.57
72038;BME280;59900;50.788;12.904;2023-06-22T01:15:49;97862.09;;;19.65;84.66
72038;BME280;59900;50.788;12.904;2023-06-22T01:18:17;97865.56;;;19.65;84.95
72038;BME280;59900;50.788;12.904;2023-06-22T01:20:43;97867.09;;;19.61;84.94
72038;BME280;59900;50.788;12.904;2023-06-22T01:25:59;97859.84;;;19.56;85.06
72038;BME280;59900;50.788;12.904;2023-06-22T01:28:50;97856.53;;;19.49;85.39
72038;BME280;59900;50.788;12.904;2023-06-22T01:31:20;97859.97;;;19.45;85.15
72038;BME280;59900;50.788;12.904;2023-06-22T01:33:51;97857.28;;;19.45;85.20
72038;BME280;59900;50.788;12.904;2023-06-22T01:36:18;97857.34;;;19.50;85.01
72038;BME280;59900;50.788;12.904;2023-06-22T01:38:44;97850.50;;;19.54;84.78
72038;BME280;59900;50.788;12.904;2023-06-22T01:41:10;97844.34;;;19.53;84.82
72038;BME280;59900;50.788;12.904;2023-06-22T01:43:36;97844.63;;;19.52;85.14
72038;BME280;59900;50.788;12.904;2023-06-22T01:46:04;97847.78;;;19.49;85.13
72038;BME280;59900;50.788;12.904;2023-06-22T01:48:30;97850.81;;;19.41;85.07
72038;BME280;59900;50.788;12.904;2023-06-22T01:50:56;97839.25;;;19.35;84.98
72038;BME280;59900;50.788;12.904;2023-06-22T01:53:22;97837.56;;;19.29;85.46
72038;BME280;59900;50.788;12.904;2023-06-22T01:55:48;97833.03;;;19.30;85.41
72038;BME280;59900;50.788;12.904;2023-06-22T01:58:13;97835.97;;;19.28;85.60
72038;BME280;59900;50.788;12.904;2023-06-22T02:00:41;97829.34;;;19.31;85.21
72038;BME280;59900;50.788;12.904;2023-06-22T02:03:12;97834.66;;;19.31;85.10
72038;BME280;59900;50.788;12.904;2023-06-22T02:05:51;97829.81;;;19.28;85.55
72038;BME280;59900;50.788;12.904;2023-06-22T02:08:24;97823.13;;;19.25;85.31
72038;BME280;59900;50.788;12.904;2023-06-22T02:10:51;97827.06;;;19.23;85.26
72038;BME280;59900;50.788;12.904;2023-06-22T02:13:18;97824.34;;;19.18;85.50
72038;BME280;59900;50.788;12.904;2023-06-22T02:15:43;97839.50;;;19.17;85.67
72038;BME280;59900;50.788;12.904;2023-06-22T02:18:09;97849.38;;;19.17;85.56
72038;BME280;59900;50.788;12.904;2023-06-22T02:20:37;97849.06;;;19.13;85.96
72038;BME280;59900;50.788;12.904;2023-06-22T02:23:03;97855.91;;;19.09;85.59
72038;BME280;59900;50.788;12.904;2023-06-22T02:25:28;97864.94;;;19.08;86.12
72038;BME280;59900;50.788;12.904;2023-06-22T02:27:53;97860.41;;;19.09;86.22
72038;BME280;59900;50.788;12.904;2023-06-22T02:30:19;97852.44;;;19.09;85.83
72038;BME280;59900;50.788;12.904;2023-06-22T02:32:44;97850.72;;;19.02;86.08
72038;BME280;59900;50.788;12.904;2023-06-22T02:35:09;97842.19;;;19.00;86.42
72038;BME280;59900;50.788;12.904;2023-06-22T02:37:36;97844.28;;;18.98;86.37
72038;BME280;59900;50.788;12.904;2023-06-22T02:40:07;97843.97;;;18.95;86.92
72038;BME280;59900;50.788;12.904;2023-06-22T02:42:34;97837.81;;;18.94;86.86
72038;BME280;59900;50.788;12.904;2023-06-22T02:44:59;97834.34;;;18.94;86.75
72038;BME280;59900;50.788;12.904;2023-06-22T02:47:25;97820.81;;;18.95;87.25
72038;BME280;59900;50.788;12.904;2023-06-22T02:49:50;97820.22;;;18.93;87.15
72038;BME280;59900;50.788;12.904;2023-06-22T02:52:16;97824.50;;;18.94;86.99
72038;BME280;59900;50.788;12.904;2023-06-22T02:54:41;97825.78;;;18.92;87.18
72038;BME280;59900;50.788;12.904;2023-06-22T02:57:06;97839.66;;;18.94;86.96
72038;BME280;59900;50.788;12.904;2023-06-22T02:59:32;97828.69;;;18.90;87.13
72038;BME280;59900;50.788;12.904;2023-06-22T03:01:57;97830.22;;;18.86;86.88
72038;BME280;59900;50.788;12.904;2023-06-22T03:04:22;97829.41;;;18.86;87.67
72038;BME280;59900;50.788;12.904;2023-06-22T03:06:47;97836.94;;;18.89;87.55
72038;BME280;59900;50.788;12.904;2023-06-22T03:09:16;97830.22;;;18.86;87.60
72038;BME280;59900;50.788;12.904;2023-06-22T03:11:41;97831.34;;;18.90;87.69
72038;BME280;59900;50.788;12.904;2023-06-22T03:14:07;97831.94;;;18.92;87.49
72038;BME280;59900;50.788;12.904;2023-06-22T03:16:32;97826.59;;;18.92;87.30
72038;BME280;59900;50.788;12.904;2023-06-22T03:18:58;97833.03;;;18.96;87.04
72038;BME280;59900;50.788;12.904;2023-06-22T03:21:26;97830.09;;;18.93;86.88
72038;BME280;59900;50.788;12.904;2023-06-22T03:23:52;97827.41;;;18.93;87.20
72038;BME280;59900;50.788;12.904;2023-06-22T03:26:18;97820.69;;;18.90;87.01
72038;BME280;59900;50.788;12.904;2023-06-22T03:28:43;97829.97;;;18.88;87.63
72038;BME280;59900;50.788;12.904;2023-06-22T03:31:08;97836.94;;;18.89;87.18
72038;BME280;59900;50.788;12.904;2023-06-22T03:33:33;97833.44;;;18.88;87.08
72038;BME280;59900;50.788;12.904;2023-06-22T03:35:59;97829.75;;;18.89;86.83
72038;BME280;59900;50.788;12.904;2023-06-22T03:38:24;97837.19;;;18.87;86.93
72038;BME280;59900;50.788;12.904;2023-06-22T03:40:49;97823.88;;;18.87;87.19
72038;BME280;59900;50.788;12.904;2023-06-22T03:43:15;97816.44;;;18.89;87.13
72038;BME280;59900;50.788;12.904;2023-06-22T03:45:40;97819.31;;;18.88;86.87
72038;BME280;59900;50.788;12.904;2023-06-22T03:48:05;97819.09;;;18.89;86.96
72038;BME280;59900;50.788;12.904;2023-06-22T03:50:30;97816.66;;;18.88;86.91
72038;BME280;59900;50.788;12.904;2023-06-22T03:52:56;97819.09;;;18.89;87.11
72038;BME280;59900;50.788;12.904;2023-06-22T03:55:21;97824.66;;;18.88;87.27
72038;BME280;59900;50.788;12.904;2023-06-22T03:57:46;97828.69;;;18.90;87.12
72038;BME280;59900;50.788;12.904;2023-06-22T04:00:12;97830.88;;;18.93;86.79
72038;BME280;59900;50.788;12.904;2023-06-22T04:02:38;97841.03;;;18.96;87.02
72038;BME280;59900;50.788;12.904;2023-06-22T04:05:03;97852.16;;;18.93;86.51
72038;BME280;59900;50.788;12.904;2023-06-22T04:07:28;97867.13;;;18.94;86.96
72038;BME280;59900;50.788;12.904;2023-06-22T04:09:54;97871.97;;;18.97;86.95
72038;BME280;59900;50.788;12.904;2023-06-22T04:12:19;97876.59;;;19.02;87.04
72038;BME280;59900;50.788;12.904;2023-06-22T04:14:44;97879.53;;;19.06;86.70
72038;BME280;59900;50.788;12.904;2023-06-22T04:17:09;97890.31;;;19.11;86.35
72038;BME280;59900;50.788;12.904;2023-06-22T04:19:34;97888.53;;;19.16;86.05
72038;BME280;59900;50.788;12.904;2023-06-22T04:22:00;97895.06;;;19.25;85.60
72038;BME280;59900;50.788;12.904;2023-06-22T04:24:25;97906.94;;;19.34;85.65
72038;BME280;59900;50.788;12.904;2023-06-22T04:26:50;97916.16;;;19.43;85.01
72038;BME280;59900;50.788;12.904;2023-06-22T04:29:20;97924.59;;;19.52;84.68
72038;BME280;59900;50.788;12.904;2023-06-22T04:31:45;97941.75;;;19.61;84.56
72038;BME280;59900;50.788;12.904;2023-06-22T04:34:16;97948.88;;;19.72;84.49
72038;BME280;59900;50.788;12.904;2023-06-22T04:36:42;97949.84;;;19.83;84.09
72038;BME280;59900;50.788;12.904;2023-06-22T04:39:08;97953.94;;;19.90;84.04
72038;BME280;59900;50.788;12.904;2023-06-22T04:41:38;97952.72;;;19.98;83.31
72038;BME280;59900;50.788;12.904;2023-06-22T04:44:14;97948.53;;;20.02;83.26
72038;BME280;59900;50.788;12.904;2023-06-22T04:46:48;97943.75;;;20.04;82.35
72038;BME280;59900;50.788;12.904;2023-06-22T04:49:18;97941.88;;;20.04;82.38
72038;BME280;59900;50.788;12.904;2023-06-22T04:51:45;97944.72;;;19.98;82.19
72038;BME280;59900;50.788;12.904;2023-06-22T04:54:10;97942.59;;;19.78;82.95
72038;BME280;59900;50.788;12.904;2023-06-22T04:56:35;97930.44;;;19.71;82.46
72038;BME280;59900;50.788;12.904;2023-06-22T04:59:01;97924.50;;;19.64;82.78
72038;BME280;59900;50.788;12.904;2023-06-22T05:01:26;97931.84;;;19.56;83.10
72038;BME280;59900;50.788;12.904;2023-06-22T05:03:51;97929.00;;;19.46;83.03
72038;BME280;59900;50.788;12.904;2023-06-22T05:06:25;97926.25;;;19.41;84.04
72038;BME280;59900;50.788;12.904;2023-06-22T05:08:53;97921.31;;;19.33;84.18
72038;BME280;59900;50.788;12.904;2023-06-22T05:11:23;97924.19;;;19.32;84.31
72038;BME280;59900;50.788;12.904;2023-06-22T05:13:48;97929.78;;;19.30;84.67
72038;BME280;59900;50.788;12.904;2023-06-22T05:16:13;97923.50;;;19.36;83.92
72038;BME280;59900;50.788;12.904;2023-06-22T05:18:39;97924.41;;;19.42;84.28
72038;BME280;59900;50.788;12.904;2023-06-22T05:21:04;97912.28;;;19.51;83.87
72038;BME280;59900;50.788;12.904;2023-06-22T05:23:29;97917.28;;;19.64;84.13
72038;BME280;59900;50.788;12.904;2023-06-22T05:25:54;97898.03;;;19.79;83.13
72038;BME280;59900;50.788;12.904;2023-06-22T05:28:22;97895.34;;;19.95;82.91
72038;BME280;59900;50.788;12.904;2023-06-22T05:30:49;97889.72;;;20.13;83.10
72038;BME280;59900;50.788;12.904;2023-06-22T05:33:14;97879.22;;;20.29;82.49
72038;BME280;59900;50.788;12.904;2023-06-22T05:35:39;97868.72;;;20.44;82.34
72038;BME280;59900;50.788;12.904;2023-06-22T05:38:05;97852.31;;;20.57;81.93
72038;BME280;59900;50.788;12.904;2023-06-22T05:40:30;97826.78;;;20.66;81.83
72038;BME280;59900;50.788;12.904;2023-06-22T05:42:55;97776.88;;;20.72;81.33
72038;BME280;59900;50.788;12.904;2023-06-22T05:45:20;97714.16;;;20.79;82.22
72038;BME280;59900;50.788;12.904;2023-06-22T05:47:46;97671.44;;;20.84;82.25
72038;BME280;59900;50.788;12.904;2023-06-22T05:50:11;97672.03;;;20.91;82.40
72038;BME280;59900;50.788;12.904;2023-06-22T05:52:36;97673.16;;;21.00;83.31
72038;BME280;59900;50.788;12.904;2023-06-22T05:55:02;97695.19;;;21.12;82.56
72038;BME280;59900;50.788;12.904;2023-06-22T05:57:27;97713.69;;;21.24;80.42
72038;BME280;59900;50.788;12.904;2023-06-22T05:59:53;97717.19;;;21.35;79.42
72038;BME280;59900;50.788;12.904;2023-06-22T06:02:19;97717.56;;;21.48;78.54
72038;BME280;59900;50.788;12.904;2023-06-22T06:04:44;97723.44;;;21.55;77.83
72038;BME280;59900;50.788;12.904;2023-06-22T06:07:09;97736.06;;;21.65;76.38
72038;BME280;59900;50.788;12.904;2023-06-22T06:09:35;97755.38;;;21.72;75.95
72038;BME280;59900;50.788;12.904;2023-06-22T06:12:00;97764.22;;;21.83;75.53
72038;BME280;59900;50.788;12.904;2023-06-22T06:14:28;97766.16;;;21.92;75.11
72038;BME280;59900;50.788;12.904;2023-06-22T06:16:53;97762.16;;;22.00;74.07
72038;BME280;59900;50.788;12.904;2023-06-22T06:19:18;97760.59;;;22.14;74.85
72038;BME280;59900;50.788;12.904;2023-06-22T06:21:43;97769.47;;;22.24;74.33
72038;BME280;59900;50.788;12.904;2023-06-22T06:24:09;97780.75;;;22.37;74.37
72038;BME280;59900;50.788;12.904;2023-06-22T06:26:34;97781.56;;;22.42;73.10
72038;BME280;59900;50.788;12.904;2023-06-22T06:29:00;97785.84;;;22.48;73.51
72038;BME280;59900;50.788;12.904;2023-06-22T06:31:25;97782.34;;;22.53;73.56
72038;BME280;59900;50.788;12.904;2023-06-22T06:33:53;97775.41;;;22.62;74.11
72038;BME280;59900;50.788;12.904;2023-06-22T06:36:19;97777.81;;;22.63;73.05
72038;BME280;59900;50.788;12.904;2023-06-22T06:38:44;97781.88;;;22.71;73.91
72038;BME280;59900;50.788;12.904;2023-06-22T06:41:12;97791.78;;;22.75;73.26
72038;BME280;59900;50.788;12.904;2023-06-22T06:43:37;97796.88;;;22.77;73.19
72038;BME280;59900;50.788;12.904;2023-06-22T06:46:02;97796.34;;;22.80;73.88
72038;BME280;59900;50.788;12.904;2023-06-22T06:48:28;97793.13;;;22.83;73.47
72038;BME280;59900;50.788;12.904;2023-06-22T06:50:53;97787.78;;;22.83;72.93
72038;BME280;59900;50.788;12.904;2023-06-22T06:53:18;97790.19;;;22.84;73.15
72038;BME280;59900;50.788;12.904;2023-06-22T06:55:44;97789.63;;;22.87;73.41
72038;BME280;59900;50.788;12.904;2023-06-22T06:58:10;97786.72;;;22.89;73.70
72038;BME280;59900;50.788;12.904;2023-06-22T07:00:38;97790.19;;;22.95;73.40
72038;BME280;59900;50.788;12.904;2023-06-22T07:03:03;97791.25;;;22.99;73.68
72038;BME280;59900;50.788;12.904;2023-06-22T07:05:28;97793.66;;;23.00;72.48
72038;BME280;59900;50.788;12.904;2023-06-22T07:07:53;97792.59;;;23.06;72.71
72038;BME280;59900;50.788;12.904;2023-06-22T07:10:19;97793.09;;;23.13;72.29
72038;BME280;59900;50.788;12.904;2023-06-22T07:12:44;97787.75;;;23.18;72.30
72038;BME280;59900;50.788;12.904;2023-06-22T07:15:10;97787.19;;;23.26;71.40
72038;BME280;59900;50.788;12.904;2023-06-22T07:17:36;97791.50;;;23.32;71.50
72038;BME280;59900;50.788;12.904;2023-06-22T07:20:03;97789.88;;;23.41;71.31
72038;BME280;59900;50.788;12.904;2023-06-22T07:22:33;97783.97;;;23.45;70.51
72038;BME280;59900;50.788;12.904;2023-06-22T07:24:58;97792.28;;;23.48;70.34
72038;BME280;59900;50.788;12.904;2023-06-22T07:27:24;97792.81;;;23.50;70.05
72038;BME280;59900;50.788;12.904;2023-06-22T07:29:49;97788.25;;;23.56;69.90
72038;BME280;59900;50.788;12.904;2023-06-22T07:32:15;97786.63;;;23.60;69.97
72038;BME280;59900;50.788;12.904;2023-06-22T07:34:41;97772.66;;;23.63;70.32
72038;BME280;59900;50.788;12.904;2023-06-22T07:37:06;97782.31;;;23.69;69.79
72038;BME280;59900;50.788;12.904;2023-06-22T07:39:31;97771.56;;;23.74;69.76
72038;BME280;59900;50.788;12.904;2023-06-22T07:41:56;97778.50;;;23.75;69.43
72038;BME280;59900;50.788;12.904;2023-06-22T07:44:22;97780.94;;;23.76;69.46
72038;BME280;59900;50.788;12.904;2023-06-22T07:46:47;97782.00;;;23.80;69.69
72038;BME280;59900;50.788;12.904;2023-06-22T07:49:12;97784.41;;;23.82;69.37
72038;BME280;59900;50.788;12.904;2023-06-22T07:51:38;97779.81;;;23.87;69.02
72038;BME280;59900;50.788;12.904;2023-06-22T07:54:03;97775.75;;;23.95;69.45
72038;BME280;59900;50.788;12.904;2023-06-22T07:56:28;97771.16;;;24.01;68.34
72038;BME280;59900;50.788;12.904;2023-06-22T07:58:53;97767.38;;;24.07;68.42
72038;BME280;59900;50.788;12.904;2023-06-22T08:01:19;97770.06;;;24.12;68.36
72038;BME280;59900;50.788;12.904;2023-06-22T08:03:50;97764.41;;;24.13;67.78
72038;BME280;59900;50.788;12.904;2023-06-22T08:06:15;97759.03;;;24.18;68.28
72038;BME280;59900;50.788;12.904;2023-06-22T08:08:41;97770.25;;;24.25;67.07
72038;BME280;59900;50.788;12.904;2023-06-22T08:11:07;97763.25;;;24.29;67.83
72038;BME280;59900;50.788;12.904;2023-06-22T08:13:32;97764.31;;;24.33;66.92
72038;BME280;59900;50.788;12.904;2023-06-22T08:15:58;97762.94;;;24.36;66.01
72038;BME280;59900;50.788;12.904;2023-06-22T08:18:23;97757.53;;;24.41;65.81
72038;BME280;59900;50.788;12.904;2023-06-22T08:20:49;97763.16;;;24.44;65.89
72038;BME280;59900;50.788;12.904;2023-06-22T08:23:14;97756.13;;;24.48;65.47
72038;BME280;59900;50.788;12.904;2023-06-22T08:25:40;97753.94;;;24.56;65.48
72038;BME280;59900;50.788;12.904;2023-06-22T08:28:05;97752.00;;;24.61;64.76
72038;BME280;59900;50.788;12.904;2023-06-22T08:30:30;97754.13;;;24.64;64.49
72038;BME280;59900;50.788;12.904;2023-06-22T08:32:56;97750.56;;;24.74;64.07
72038;BME280;59900;50.788;12.904;2023-06-22T08:35:24;97748.91;;;24.78;64.33
72038;BME280;59900;50.788;12.904;2023-06-22T08:37:50;97757.22;;;24.86;63.69
72038;BME280;59900;50.788;12.904;2023-06-22T08:40:19;97754.75;;;24.90;62.22
72038;BME280;59900;50.788;12.904;2023-06-22T08:42:46;97743.72;;;24.91;61.99
72038;BME280;59900;50.788;12.904;2023-06-22T08:45:12;97741.28;;;24.95;61.66
72038;BME280;59900;50.788;12.904;2023-06-22T08:47:38;97741.28;;;24.95;61.46
72038;BME280;59900;50.788;12.904;2023-06-22T08:50:04;97731.84;;;24.97;60.92
72038;BME280;59900;50.788;12.904;2023-06-22T08:52:29;97736.66;;;25.00;59.72
72038;BME280;59900;50.788;12.904;2023-06-22T08:54:55;97741.13;;;25.10;59.85
72038;BME280;59900;50.788;12.904;2023-06-22T08:57:21;97739.22;;;25.16;58.77
72038;BME280;59900;50.788;12.904;2023-06-22T08:59:46;97737.59;;;25.15;58.58
72038;BME280;59900;50.788;12.904;2023-06-22T09:02:11;97740.28;;;25.15;58.97
72038;BME280;59900;50.788;12.904;2023-06-22T09:04:37;97740.78;;;25.17;60.15
72038;BME280;59900;50.788;12.904;2023-06-22T09:07:02;97733.13;;;25.29;59.94
72038;BME280;59900;50.788;12.904;2023-06-22T09:09:28;97734.69;;;25.35;58.62
72038;BME280;59900;50.788;12.904;2023-06-22T09:11:53;97735.16;;;25.42;58.45
72038;BME280;59900;50.788;12.904;2023-06-22T09:14:18;97726.75;;;25.48;57.99
72038;BME280;59900;50.788;12.904;2023-06-22T09:16:44;97743.06;;;25.57;58.44
72038;BME280;59900;50.788;12.904;2023-06-22T09:19:09;97734.22;;;25.56;58.07
72038;BME280;59900;50.788;12.904;2023-06-22T09:21:34;97729.25;;;25.63;59.24
72038;BME280;59900;50.788;12.904;2023-06-22T09:23:59;97727.03;;;25.71;58.35
72038;BME280;59900;50.788;12.904;2023-06-22T09:26:25;97725.09;;;25.76;58.30
72038;BME280;59900;50.788;12.904;2023-06-22T09:28:50;97713.97;;;25.83;56.47
72038;BME280;59900;50.788;12.904;2023-06-22T09:31:15;97714.25;;;25.81;57.89
72038;BME280;59900;50.788;12.904;2023-06-22T09:33:42;97717.38;;;25.88;57.74
72038;BME280;59900;50.788;12.904;2023-06-22T09:36:07;97710.53;;;25.96;57.37
72038;BME280;59900;50.788;12.904;2023-06-22T09:38:38;97706.09;;;26.05;57.60
72038;BME280;59900;50.788;12.904;2023-06-22T09:41:04;97707.41;;;26.07;57.19
72038;BME280;59900;50.788;12.904;2023-06-22T09:43:31;97705.25;;;26.09;57.64
72038;BME280;59900;50.788;12.904;2023-06-22T09:45:57;97702.50;;;26.14;57.75
72038;BME280;59900;50.788;12.904;2023-06-22T09:48:22;97708.03;;;26.23;57.75
72038;BME280;59900;50.788;12.904;2023-06-22T09:50:47;97699.88;;;26.28;56.79
72038;BME280;59900;50.788;12.904;2023-06-22T09:53:13;97705.38;;;26.37;56.92
72038;BME280;59900;50.788;12.904;2023-06-22T09:55:38;97680.69;;;26.48;56.55
72038;BME280;59900;50.788;12.904;2023-06-22T09:58:03;97690.88;;;26.51;57.63
72038;BME280;59900;50.788;12.904;2023-06-22T10:00:28;97696.19;;;26.56;56.71
72038;BME280;59900;50.788;12.904;2023-06-22T10:02:54;97690.63;;;26.66;56.64
72038;BME280;59900;50.788;12.904;2023-06-22T10:05:21;97696.13;;;26.75;57.39
72038;BME280;59900;50.788;12.904;2023-06-22T10:07:46;97690.09;;;26.83;57.17
72038;BME280;59900;50.788;12.904;2023-06-22T10:10:12;97695.81;;;26.95;57.21
72038;BME280;59900;50.788;12.904;2023-06-22T10:12:45;97694.34;;;27.03;56.95
72038;BME280;59900;50.788;12.904;2023-06-22T10:15:11;97695.31;;;27.07;56.37
72038;BME280;59900;50.788;12.904;2023-06-22T10:17:36;97691.44;;;27.13;56.09
72038;BME280;59900;50.788;12.904;2023-06-22T10:20:02;97688.06;;;27.21;55.02
72038;BME280;59900;50.788;12.904;2023-06-22T10:22:31;97686.88;;;27.27;54.88
72038;BME280;59900;50.788;12.904;2023-06-22T10:24:57;97679.66;;;27.36;54.75
72038;BME280;59900;50.788;12.904;2023-06-22T10:27:22;97678.19;;;27.44;55.72
72038;BME280;59900;50.788;12.904;2023-06-22T10:29:47;97673.19;;;27.51;55.32
72038;BME280;59900;50.788;12.904;2023-06-22T10:32:12;97670.78;;;27.63;55.65
72038;BME280;59900;50.788;12.904;2023-06-22T10:34:38;97667.25;;;27.76;55.54
72038;BME280;59900;50.788;12.904;2023-06-22T10:37:03;97668.88;;;27.77;53.47
72038;BME280;59900;50.788;12.904;2023-06-22T10:39:28;97663.53;;;27.86;54.29
72038;BME280;59900;50.788;12.904;2023-06-22T10:41:54;97672.34;;;27.91;53.65
72038;BME280;59900;50.788;12.904;2023-06-22T10:44:20;97655.31;;;27.91;52.80
72038;BME280;59900;50.788;12.904;2023-06-22T10:46:45;97656.94;;;27.92;53.18
72038;BME280;59900;50.788;12.904;2023-06-22T10:49:11;97646.97;;;28.01;52.85
72038;BME280;59900;50.788;12.904;2023-06-22T10:51:36;97653.19;;;28.01;53.47
72038;BME280;59900;50.788;12.904;2023-06-22T10:54:01;97648.00;;;28.05;53.13
72038;BME280;59900;50.788;12.904;2023-06-22T10:56:26;97649.47;;;28.11;53.71
72038;BME280;59900;50.788;12.904;2023-06-22T10:58:52;97637.63;;;28.20;53.21
72038;BME280;59900;50.788;12.904;2023-06-22T11:01:17;97645.84;;;28.15;53.83
72038;BME280;59900;50.788;12.904;2023-06-22T11:03:42;97652.84;;;28.16;53.94
72038;BME280;59900;50.788;12.904;2023-06-22T11:06:07;97650.41;;;28.28;53.99
72038;BME280;59900;50.788;12.904;2023-06-22T11:08:33;97639.97;;;28.35;53.07
72038;BME280;59900;50.788;12.904;2023-06-22T11:10:58;97644.94;;;28.42;53.38
72038;BME280;59900;50.788;12.904;2023-06-22T11:13:23;97642.91;;;28.48;51.83
72038;BME280;59900;50.788;12.904;2023-06-22T11:15:50;97635.09;;;28.46;52.10
72038;BME280;59900;50.788;12.904;2023-06-22T11:18:15;97637.81;;;28.46;51.79
72038;BME280;59900;50.788;12.904;2023-06-22T11:20:40;97639.22;;;28.44;52.29
72038;BME280;59900;50.788;12.904;2023-06-22T11:23:06;97634.97;;;28.51;52.34
72038;BME280;59900;50.788;12.904;2023-06-22T11:25:31;97624.13;;;28.65;52.82
72038;BME280;59900;50.788;12.904;2023-06-22T11:27:56;97632.28;;;28.73;52.90
72038;BME280;59900;50.788;12.904;2023-06-22T11:30:22;97637.06;;;28.76;51.92
72038;BME280;59900;50.788;12.904;2023-06-22T11:32:48;97620.22;;;28.79;51.21
72038;BME280;59900;50.788;12.904;2023-06-22T11:35:13;97619.63;;;28.91;51.39
72038;BME280;59900;50.788;12.904;2023-06-22T11:37:38;97618.53;;;29.01;50.79
72038;BME280;59900;50.788;12.904;2023-06-22T11:40:04;97611.41;;;29.05;50.60
72038;BME280;59900;50.788;12.904;2023-06-22T11:42:30;97611.75;;;29.12;50.31
72038;BME280;59900;50.788;12.904;2023-06-22T11:44:55;97609.34;;;29.10;49.93
72038;BME280;59900;50.788;12.904;2023-06-22T11:47:21;97610.16;;;29.11;50.51
72038;BME280;59900;50.788;12.904;2023-06-22T11:49:46;97611.41;;;29.05;50.58
72038;BME280;59900;50.788;12.904;2023-06-22T11:52:11;97603.13;;;29.10;50.05
72038;BME280;59900;50.788;12.904;2023-06-22T11:54:37;97595.38;;;29.17;49.99
72038;BME280;59900;50.788;12.904;2023-06-22T11:57:03;97595.09;;;29.27;49.94
72038;BME280;59900;50.788;12.904;2023-06-22T11:59:29;97589.22;;;29.42;49.83
72038;BME280;59900;50.788;12.904;2023-06-22T12:01:54;97592.91;;;29.46;49.34
72038;BME280;59900;50.788;12.904;2023-06-22T12:04:19;97584.00;;;29.54;48.57
72038;BME280;59900;50.788;12.904;2023-06-22T12:06:45;97577.94;;;29.66;49.02
72038;BME280;59900;50.788;12.904;2023-06-22T12:09:10;97572.72;;;29.86;48.62
72038;BME280;59900;50.788;12.904;2023-06-22T12:11:35;97576.69;;;30.06;49.35
72038;BME280;59900;50.788;12.904;2023-06-22T12:14:01;97570.94;;;30.16;47.80
72038;BME280;59900;50.788;12.904;2023-06-22T12:16:28;97567.13;;;30.26;47.67
72038;BME280;59900;50.788;12.904;2023-06-22T12:18:53;97555.91;;;30.44;47.03
72038;BME280;59900;50.788;12.904;2023-06-22T12:21:19;97550.91;;;30.64;47.28
72038;BME280;59900;50.788;12.904;2023-06-22T12:23:44;97546.53;;;30.80;46.72
72038;BME280;59900;50.788;12.904;2023-06-22T12:26:09;97550.13;;;31.01;46.68
72038;BME280;59900;50.788;12.904;2023-06-22T12:28:34;97557.88;;;31.20;45.75
72038;BME280;59900;50.788;12.904;2023-06-22T12:31:00;97558.97;;;31.19;45.05
72038;BME280;59900;50.788;12.904;2023-06-22T12:33:25;97554.56;;;31.35;44.29
72038;BME280;59900;50.788;12.904;2023-06-22T12:35:50;97550.84;;;31.39;45.07
72038;BME280;59900;50.788;12.904;2023-06-22T12:38:15;97539.09;;;31.56;44.75
72038;BME280;59900;50.788;12.904;2023-06-22T12:40:41;97541.47;;;31.78;45.16
72038;BME280;59900;50.788;12.904;2023-06-22T12:43:06;97536.00;;;32.20;43.88
72038;BME280;59900;50.788;12.904;2023-06-22T12:45:32;97546.94;;;32.32;43.42
72038;BME280;59900;50.788;12.904;2023-06-22T12:47:58;97529.47;;;32.45;42.46
72038;BME280;59900;50.788;12.904;2023-06-22T12:50:24;97527.72;;;32.61;42.89